• Join FlightAware (Why Join?)
  • Login
  • US Flag 
04:56PM EST


 

Airport Tracker/Info


-or-


 

Live Flight TrackerFlight Track Log ✈ AAL2497 ✈ 27-Feb-2012 ✈ KDFW - KLAX

Flight Track Log - Related Links

Times and Time Zones

All times are in EST time to prevent confusion due to time zone crossing. See the AAL2497 flight status page for this flight to view local times or setup timezone preferences in your user account.

Time Position Orientation Groundspeed Altitude Reporting Facility
EST Latitude Longitude Course Direction KTS MPH feet Rate Location/Type
12:13AM 32.8500 -97.0500 232° Southwest 167 192 4,200  Level Dallas / Fort Worth TRACON
12:14AM 32.8269 -97.0856 276° West 238 274 5,800 2,940 Climbing FAA TRACON SMA TRACON (SMA)
12:14AM 32.8325 -97.1461 280° West 271 312 8,100 3,180 Climbing FAA TRACON SMA TRACON (SMA)
12:15AM 32.8406 -97.2014 279° West 276 318 10,100 3,180 Climbing FAA TRACON SMA TRACON (SMA)
12:16AM 32.8494 -97.2647 280° West 281 323 12,400 2,400 Climbing FAA TRACON SMA TRACON (SMA)
12:16AM 32.8581 -97.3256 280° West 307 353 13,300 1,860 Climbing FAA TRACON SMA TRACON (SMA)
12:17AM 32.8689 -97.4017 279° West 342 394 14,900 1,920 Climbing FAA TRACON SMA TRACON (SMA)
12:18AM 32.8800 -97.4828 280° West 363 418 15,900 1,920 Climbing FAA TRACON SMA TRACON (SMA)
12:18AM 32.8922 -97.5692 280° West 383 441 17,500 2,100 Climbing FAA TRACON SMA TRACON (SMA)
12:19AM 32.9033 -97.6472 279° West 391 450 18,700 1,920 Climbing FAA TRACON SMA TRACON (SMA)
12:20AM 32.9153 -97.7364 279° West 397 457 20,100 2,100 Climbing FAA TRACON SMA TRACON (SMA)
12:20AM 32.9278 -97.8278 279° West 404 465 21,600 3,660 Climbing FAA TRACON SMA TRACON (SMA)
12:21AM 32.9383 -97.9044 279° West 377 434 25,000 3,900 Climbing FAA TRACON SMA TRACON (SMA)
12:22AM 32.9486 -97.9822 279° West 344 396 26,800 2,100 Climbing FAA TRACON SMA TRACON (SMA)
12:22AM 32.9581 -98.0519 279° West 347 399 27,800 1,260 Climbing FAA TRACON SMA TRACON (SMA)
12:23AM 32.9731 -98.1711 278° West 356 410 29,100 1,320 Climbing Fort Worth Center
12:24AM 32.9869 -98.2928 280° West 356 410 30,600 1,320 Climbing Fort Worth Center
12:25AM 33.0047 -98.4142 279° West 374 430 31,800 1,200 Climbing Fort Worth Center
12:26AM 33.0203 -98.5358 279° West 374 430 33,100 1,080 Climbing Fort Worth Center
12:27AM 33.0358 -98.6597 279° West 374 430 34,000 420 Climbing Fort Worth Center
12:28AM 33.0514 -98.7839 281° West 374 430 34,000  Level Fort Worth Center
12:29AM 33.0708 -98.9083 278° West 374 430 34,000  Level Fort Worth Center
12:30AM 33.0858 -99.0375 278° West 386 444 34,000  Level Fort Worth Center
12:31AM 33.1008 -99.1667 279° West 391 450 34,000  Level Fort Worth Center
12:32AM 33.1178 -99.2961 279° West 391 450 34,000  Level Fort Worth Center
12:33AM 33.1344 -99.4253 277° West 391 450 34,000  Level Fort Worth Center
12:34AM 33.1489 -99.5597 279° West 396 456 34,000  Level Fort Worth Center
12:35AM 33.1656 -99.6892 278° West 396 456 34,000  Level Fort Worth Center
12:36AM 33.1817 -99.8236 278° West 402 463 34,000  Level Fort Worth Center
12:37AM 33.1978 -99.9556 278° West 407 468 34,000  Level Fort Worth Center
12:38AM 33.2139 -100.0875 277° West 407 468 34,000  Level Fort Worth Center
12:39AM 33.2278 -100.2197 277° West 407 468 34,000  Level Fort Worth Center
12:40AM 33.2414 -100.3492 278° West 407 468 34,000  Level Fort Worth Center
12:41AM 33.2569 -100.4814 277° West 407 468 34,000  Level Fort Worth Center
12:42AM 33.2706 -100.6111 278° West 407 468 34,000  Level Fort Worth Center
12:43AM 33.2858 -100.7433 277° West 407 468 34,000  Level Fort Worth Center
12:44AM 33.2992 -100.8731 278° West 407 468 34,000  Level Fort Worth Center
12:45AM 33.3158 -101.0153 278° West 407 468 34,000  Level Fort Worth Center
12:46AM 33.3292 -101.1303 277° West 407 468 34,000  Level Fort Worth Center
12:47AM 33.3436 -101.2750 277° West 407 468 34,000  Level Fort Worth Center
12:48AM 33.3547 -101.3922 277° West 407 468 34,000  Level Fort Worth Center
12:49AM 33.3689 -101.5347 276° West 407 468 34,000  Level Fort Worth Center
12:50AM 33.3794 -101.6522 277° West 407 468 34,000  Level Fort Worth Center
12:51AM 33.3933 -101.7947 277° West 402 463 34,000  Level Fort Worth Center
12:52AM 33.4058 -101.9097 278° West 402 463 34,000  Level Fort Worth Center
12:53AM 33.4217 -102.0525 277° West 402 463 34,000  Level Fort Worth Center
12:54AM 33.4339 -102.1700 276° West 395 455 34,000  Level Fort Worth Center
12:55AM 33.4469 -102.3150 278° West 395 455 34,000  Level Fort Worth Center
12:56AM 33.4608 -102.4403 276° West 388 447 34,000  Level Fort Worth Center
12:57AM 33.4725 -102.5678 276° West 388 447 34,000  Level Fort Worth Center
12:58AM 33.4822 -102.6856 277° West 395 455 34,000  Level Fort Worth Center
12:59AM 33.4969 -102.8283 277° West 395 455 34,000  Level Fort Worth Center
01:02AM 33.5253 -103.1219 277° West 399 459 34,000  Level Albuquerque Center
01:03AM 33.5381 -103.2533 277° West 404 465 34,000  Level Albuquerque Center
01:04AM 33.5508 -103.3797 274° West 399 459 34,000  Level Albuquerque Center
01:05AM 33.5594 -103.5164 275° West 404 465 34,000  Level Albuquerque Center
01:06AM 33.5697 -103.6481 277° West 404 465 34,000  Level Albuquerque Center
01:07AM 33.5822 -103.7794 274° West 409 471 34,000  Level Albuquerque Center
01:08AM 33.5900 -103.9014 266° West 408 470 34,000  Level Albuquerque Center
01:09AM 33.5814 -104.0461 266° West 403 464 34,000  Level Albuquerque Center
01:10AM 33.5742 -104.1661 264° West 408 470 34,000  Level Albuquerque Center
01:11AM 33.5614 -104.3111 264° West 408 470 34,000  Level Albuquerque Center
01:12AM 33.5517 -104.4286 265° West 413 475 34,000  Level Albuquerque Center
01:13AM 33.5408 -104.5783 264° West 407 468 34,000  Level Albuquerque Center
01:14AM 33.5292 -104.7083 261° West 407 468 34,000  Level Albuquerque Center
01:15AM 33.5131 -104.8358 264° West 402 463 34,000  Level Albuquerque Center
01:16AM 33.5011 -104.9683 265° West 402 463 34,000  Level Albuquerque Center
01:17AM 33.4911 -105.0956 264° West 397 457 34,000  Level Albuquerque Center
01:18AM 33.4789 -105.2278 265° West 397 457 34,000  Level Albuquerque Center
01:19AM 33.4686 -105.3550 261° West 389 448 34,000  Level Albuquerque Center
01:20AM 33.4519 -105.4847 268° West 389 448 34,000  Level Albuquerque Center
01:21AM 33.4475 -105.6092 263° West 389 448 34,000  Level Albuquerque Center
01:22AM 33.4347 -105.7364 264° West 389 448 34,000 -60 Level Albuquerque Center
01:23AM 33.4239 -105.8611 264° West 389 448 33,900  Descending Albuquerque Center
01:24AM 33.4128 -105.9831 264° West 389 448 34,000  Climbing Albuquerque Center
01:25AM 33.4017 -106.1078 263° West 384 442 34,000  Level Albuquerque Center
01:26AM 33.3883 -106.2347 263° West 384 442 34,000  Level Albuquerque Center
01:27AM 33.3747 -106.3592 264° West 384 442 34,000  Level Albuquerque Center
01:28AM 33.3633 -106.4886 264° West 389 448 34,000  Level Albuquerque Center
01:29AM 33.3517 -106.6156 263° West 389 448 34,000  Level Albuquerque Center
01:30AM 33.3378 -106.7447 264° West 389 448 34,000  Level Albuquerque Center
01:31AM 33.3258 -106.8717 263° West 389 448 34,000  Level Albuquerque Center
01:32AM 33.3136 -106.9958 262° West 389 448 34,000  Level Albuquerque Center
01:33AM 33.2994 -107.1178 263° West 395 455 34,000  Level Albuquerque Center
01:34AM 33.2872 -107.2344 263° West 390 449 34,000  Level Albuquerque Center
01:35AM 33.2747 -107.3636 273° West 390 449 34,000  Level Albuquerque Center
01:36AM 33.2808 -107.4928 277° West 390 449 34,000  Level Albuquerque Center
01:37AM 33.2953 -107.6269 279° West 395 455 34,000  Level Albuquerque Center
01:38AM 33.3117 -107.7586 277° West 402 463 34,000 360 Level Albuquerque Center
01:39AM 33.3256 -107.8903 278° West 407 468 34,800 1,140 Climbing Albuquerque Center
01:40AM 33.3397 -108.0147 281° West 402 463 36,300 1,200 Climbing Albuquerque Center
01:41AM 33.3617 -108.1492 277° West 392 451 37,200 840 Climbing Albuquerque Center
01:42AM 33.3756 -108.2786 277° West 386 444 38,000 360 Climbing Albuquerque Center
01:43AM 33.3889 -108.4056 280° West 386 444 38,000  Level Albuquerque Center
01:44AM 33.4067 -108.5325 279° West 386 444 38,000  Level Albuquerque Center
01:45AM 33.4242 -108.6622 279° West 391 450 38,000  Level Albuquerque Center
01:46AM 33.4414 -108.7869 278° West 391 450 38,000  Level Albuquerque Center
01:47AM 33.4547 -108.8967 277° West 385 443 38,000  Level Albuquerque Center
01:48AM 33.4675 -109.0189 278° West 385 443 38,000  Level Albuquerque Center
01:49AM 33.4825 -109.1411 278° West 385 443 38,000  Level Albuquerque Center
01:50AM 33.4972 -109.2683 278° West 385 443 38,000  Level Albuquerque Center
01:51AM 33.5119 -109.3958 279° West 391 450 38,000  Level Albuquerque Center
01:52AM 33.5283 -109.5231 278° West 391 450 38,000  Level Albuquerque Center
01:53AM 33.5428 -109.6531 279° West 391 450 38,000  Level Albuquerque Center
01:54AM 33.5589 -109.7781 277° West 391 450 38,000  Level Albuquerque Center
01:55AM 33.5711 -109.9031 279° West 391 450 38,000  Level Albuquerque Center
01:56AM 33.5889 -110.0433 277° West 391 450 38,000  Level Albuquerque Center
01:57AM 33.6025 -110.1708 278° West 391 450 38,000  Level Albuquerque Center
01:58AM 33.6183 -110.2986 279° West 391 450 38,000  Level Albuquerque Center
01:59AM 33.6342 -110.4136 279° West 391 450 38,000  Level Albuquerque Center
02:00AM 33.6497 -110.5389 277° West 391 450 38,000  Level Albuquerque Center
02:01AM 33.6628 -110.6767 278° West 391 450 38,000  Level Albuquerque Center
02:02AM 33.6778 -110.8044 277° West 391 450 38,000  Level Albuquerque Center
02:03AM 33.6908 -110.9325 277° West 391 450 38,000  Level Albuquerque Center
02:04AM 33.7036 -111.0578 277° West 391 450 38,000  Level Albuquerque Center
02:05AM 33.7164 -111.1856 277° West 391 450 38,000  Level Albuquerque Center
02:06AM 33.7289 -111.3161 277° West 391 450 38,000  Level Albuquerque Center
02:07AM 33.7414 -111.4414 277° West 391 450 38,000  Level Albuquerque Center
02:08AM 33.7536 -111.5669 278° West 386 444 38,000  Level Albuquerque Center
02:09AM 33.7681 -111.6875 277° West 381 438 38,000  Level Albuquerque Center
02:10AM 33.7803 -111.8131 277° West 375 432 38,000  Level Albuquerque Center
02:11AM 33.7922 -111.9361 277° West 375 432 38,000  Level Albuquerque Center
02:12AM 33.8042 -112.0567 276° West 372 428 38,000  Level Albuquerque Center
02:13AM 33.8144 -112.1672 278° West 372 428 38,000  Level Albuquerque Center
02:14AM 33.8300 -112.3008 277° West 372 428 38,000  Level Albuquerque Center
02:15AM 33.8419 -112.4139 276° West 372 428 38,000  Level Albuquerque Center
02:16AM 33.8528 -112.5472 275° West 372 428 38,000  Level Albuquerque Center
02:17AM 33.8606 -112.6603 277° West 372 428 38,000  Level Albuquerque Center
02:18AM 33.8736 -112.7836 275° West 372 428 38,000  Level Albuquerque Center
02:19AM 33.8825 -112.9067 276° West 372 428 38,000  Level Albuquerque Center
02:20AM 33.8933 -113.0325 277° West 377 434 38,000  Level Albuquerque Center
02:21AM 33.9064 -113.1558 276° West 377 434 38,000  Level Albuquerque Center
02:22AM 33.9167 -113.2842 276° West 377 434 38,000  Level Albuquerque Center
02:23AM 33.9286 -113.4228 275° West 377 434 38,000  Level Albuquerque Center
02:24AM 33.9386 -113.5511 276° West 387 445 38,000  Level Albuquerque Center
02:25AM 33.9589 -113.7797 277° West 404 465 38,000  Level Los Angeles Center
02:26AM 33.9717 -113.9119 274° West 404 465 38,000  Level Los Angeles Center
02:27AM 33.9803 -114.0469 269° West 404 465 38,000  Level Los Angeles Center
02:28AM 33.9783 -114.1772 270° West 404 465 38,000  Level Los Angeles Center
02:29AM 33.9783 -114.3075 271° West 399 459 38,000  Level Los Angeles Center
02:30AM 33.9803 -114.4403 269° West 399 459 38,000  Level Los Angeles Center
02:31AM 33.9778 -114.5731 270° West 404 465 38,000  Level Los Angeles Center
02:32AM 33.9772 -114.7083 271° West 404 465 38,000 -360 Level Los Angeles Center
02:33AM 33.9786 -114.8411 270° West 404 465 37,300 -840 Descending Los Angeles Center
02:34AM 33.9781 -114.9789 269° West 404 465 36,400 -660 Descending Los Angeles Center
02:35AM 33.9769 -115.1092 271° West 404 465 36,000 -240 Descending Los Angeles Center
02:36AM 33.9781 -115.2369 269° West 392 451 36,000  Level Los Angeles Center
02:37AM 33.9769 -115.3647 269° West 387 445 36,000  Level Los Angeles Center
02:38AM 33.9756 -115.4950 269° West 382 440 36,000  Level Los Angeles Center
02:39AM 33.9739 -115.6253 269° West 382 440 36,000  Level Los Angeles Center
02:40AM 33.9725 -115.7556 270° West 382 440 36,000  Level Los Angeles Center
02:41AM 33.9728 -115.8883 269° West 388 447 36,000  Level Los Angeles Center
02:42AM 33.9708 -116.0211 270° West 393 452 36,000 -240 Level Los Angeles Center
02:43AM 33.9708 -116.1539 269° West 393 452 35,600 -960 Descending Los Angeles Center
02:44AM 33.9686 -116.2814 269° West 393 452 34,100 -2,040 Descending Los Angeles Center
02:45AM 33.9664 -116.4142 270° West 393 452 31,600 -2,460 Descending Los Angeles Center
02:46AM 33.9658 -116.5369 269° West 388 447 29,200 -2,400 Descending Los Angeles Center
02:47AM 33.9633 -116.6547 270° West 376 433 26,900 -2,400 Descending Los Angeles Center
02:48AM 33.9628 -116.7700 268° West 357 411 24,500 -2,400 Descending Los Angeles Center
02:49AM 33.9600 -116.8775 268° West 337 388 22,100 -2,400 Descending Los Angeles Center
02:50AM 33.9572 -116.9778 263° West 326 375 19,800 -2,340 Descending Los Angeles Center
02:51AM 33.9500 -117.0500 270° West 295 339 18,200 -1,800 Descending Southern California TRACON
02:52AM 33.9500 -117.1333 280° West 290 334 17,000 -1,440 Descending Southern California TRACON
02:53AM 33.9667 -117.2500 270° West 309 356 15,300 -1,500 Descending Southern California TRACON
02:54AM 33.9667 -117.3500 281° West 304 350 13,900 -1,500 Descending Southern California TRACON
02:55AM 33.9833 -117.4500 270° West 299 344 12,500 -1,140 Descending Southern California TRACON
02:56AM 33.9833 -117.5333 281° West 287 330 11,700 -1,140 Descending Southern California TRACON
02:57AM 34.0000 -117.6333 270° West 285 328 10,300 -1,020 Descending Southern California TRACON
02:58AM 34.0000 -117.7167 270° West 270 311 9,800 -900 Descending Southern California TRACON
02:59AM 34.0000 -117.8000 256° West 251 289 8,700 -1,320 Descending Southern California TRACON
03:00AM 33.9833 -117.8833 270° West 231 266 7,200 -1,260 Descending Southern California TRACON
03:01AM 33.9833 -117.9500 253° West 220 253 6,400 -900 Descending Southern California TRACON
03:02AM 33.9667 -118.0167 270° West 213 245 5,500 -840 Descending Southern California TRACON
03:03AM 33.9667 -118.0833 270° West 215 247 4,900 -780 Descending Southern California TRACON
03:04AM 33.9667 -118.1500 270° West 207 238 4,100 -840 Descending Southern California TRACON